createdAt,value
2023-01-03T00:01:54.037Z,8.38
2023-01-03T00:04:21.128Z,8.40
2023-01-03T00:06:49.545Z,8.47
2023-01-03T00:09:17.389Z,8.46
2023-01-03T00:12:04.519Z,8.50
2023-01-03T00:14:32.447Z,8.50
2023-01-03T00:17:00.142Z,8.40
2023-01-03T00:19:28.239Z,8.42
2023-01-03T00:21:55.946Z,8.53
2023-01-03T00:24:22.822Z,8.50
2023-01-03T00:26:49.359Z,8.67
2023-01-03T00:29:16.288Z,8.49
2023-01-03T00:31:42.781Z,8.40
2023-01-03T00:34:09.627Z,8.57
2023-01-03T00:36:36.676Z,8.44
2023-01-03T00:39:03.459Z,8.46
2023-01-03T00:41:30.654Z,8.49
2023-01-03T00:43:57.427Z,8.41
2023-01-03T00:46:24.574Z,8.35
2023-01-03T00:48:51.388Z,8.35
2023-01-03T00:51:19.337Z,8.40
2023-01-03T00:53:47.169Z,8.35
2023-01-03T00:56:14.938Z,8.41
2023-01-03T00:58:41.669Z,8.10
2023-01-03T01:01:18.456Z,8.07
2023-01-03T01:03:46.496Z,7.98
2023-01-03T01:06:33.381Z,8.10
2023-01-03T01:09:01.023Z,8.03
2023-01-03T01:11:28.347Z,7.97
2023-01-03T01:13:55.283Z,7.83
2023-01-03T01:16:23.182Z,7.71
2023-01-03T01:18:50.572Z,7.76
2023-01-03T01:21:19.428Z,7.86
2023-01-03T01:23:46.510Z,7.89
2023-01-03T01:26:14.241Z,8.01
2023-01-03T01:28:40.718Z,7.90
2023-01-03T01:31:07.649Z,7.82
2023-01-03T01:33:34.927Z,7.78
2023-01-03T01:36:08.187Z,7.71
2023-01-03T01:38:34.741Z,7.87
2023-01-03T01:41:01.203Z,7.65
2023-01-03T01:43:46.156Z,7.76
2023-01-03T01:46:21.117Z,7.76
2023-01-03T01:48:49.803Z,7.72
2023-01-03T01:51:17.995Z,7.60
2023-01-03T01:53:44.605Z,7.91
2023-01-03T01:56:14.839Z,7.75
2023-01-03T01:58:42.441Z,7.77
2023-01-03T02:01:13.237Z,7.74
2023-01-03T02:03:41.413Z,7.53
2023-01-03T02:06:09.831Z,7.55
2023-01-03T02:08:36.629Z,7.44
2023-01-03T02:11:03.330Z,7.36
2023-01-03T02:13:42.094Z,7.32
2023-01-03T02:16:17.765Z,7.29
2023-01-03T02:18:54.220Z,7.34
2023-01-03T02:21:20.663Z,7.21
2023-01-03T02:23:52.940Z,7.23
2023-01-03T02:26:22.514Z,7.16
2023-01-03T02:29:07.883Z,7.22
2023-01-03T02:31:39.015Z,7.14
2023-01-03T02:34:18.325Z,7.08
2023-01-03T02:37:03.366Z,6.99
2023-01-03T02:39:41.953Z,6.89
2023-01-03T02:42:29.925Z,6.81
2023-01-03T02:45:25.888Z,6.80
2023-01-03T02:47:54.847Z,6.72
2023-01-03T02:50:24.645Z,6.67
2023-01-03T02:52:53.624Z,6.51
2023-01-03T02:55:22.635Z,6.49
2023-01-03T02:57:55.002Z,6.61
2023-01-03T03:00:24.274Z,6.47
2023-01-03T03:02:53.902Z,6.44
2023-01-03T03:05:24.806Z,6.59
2023-01-03T03:07:51.629Z,6.55
2023-01-03T03:10:36.838Z,6.50
2023-01-03T03:13:15.506Z,6.46
2023-01-03T03:16:02.273Z,6.51
2023-01-03T03:18:36.472Z,6.29
2023-01-03T03:21:23.398Z,6.40
2023-01-03T03:24:10.281Z,6.22
2023-01-03T03:26:39.580Z,6.15
2023-01-03T03:29:10.146Z,6.24
2023-01-03T03:31:45.172Z,6.18
2023-01-03T03:34:14.927Z,6.18
2023-01-03T03:36:54.895Z,5.98
2023-01-03T03:39:40.797Z,5.99
2023-01-03T03:42:28.921Z,5.90
2023-01-03T03:45:01.429Z,5.68
2023-01-03T03:47:54.814Z,5.85
2023-01-03T03:50:28.035Z,5.69
2023-01-03T03:52:57.445Z,5.80
2023-01-03T03:55:37.069Z,5.70
2023-01-03T03:58:09.696Z,5.75
2023-01-03T04:00:38.501Z,5.85
2023-01-03T04:03:06.465Z,5.69
2023-01-03T04:05:36.222Z,5.68
2023-01-03T04:08:02.896Z,5.66
2023-01-03T04:10:35.554Z,5.69
2023-01-03T04:13:04.321Z,5.83
2023-01-03T04:15:30.875Z,5.66
2023-01-03T04:17:57.450Z,5.64
2023-01-03T04:20:23.972Z,5.53
2023-01-03T04:22:50.529Z,5.47
2023-01-03T04:25:17.083Z,5.43
2023-01-03T04:27:43.604Z,5.54
2023-01-03T04:30:11.609Z,5.47
2023-01-03T04:32:38.204Z,5.47
2023-01-03T04:35:05.051Z,5.39
2023-01-03T04:37:31.515Z,5.39
2023-01-03T04:39:58.080Z,5.26
2023-01-03T04:42:43.057Z,5.16
2023-01-03T04:45:09.931Z,4.97
2023-01-03T04:47:36.386Z,4.89
2023-01-03T04:50:03.504Z,4.81
2023-01-03T04:52:30.057Z,4.73
2023-01-03T04:54:56.484Z,4.63
2023-01-03T04:57:22.958Z,4.51
2023-01-03T04:59:49.471Z,4.42
2023-01-03T05:02:16.204Z,4.29
2023-01-03T05:04:42.821Z,4.23
2023-01-03T05:07:09.336Z,4.14
2023-01-03T05:09:35.817Z,4.09
2023-01-03T05:12:02.283Z,4.11
2023-01-03T05:14:28.768Z,4.14
2023-01-03T05:16:55.282Z,4.22
2023-01-03T05:19:21.768Z,4.35
2023-01-03T05:22:06.937Z,4.28
2023-01-03T05:24:56.038Z,4.51
2023-01-03T05:27:24.903Z,4.57
2023-01-03T05:29:52.153Z,4.64
2023-01-03T05:32:18.749Z,4.58
2023-01-03T05:34:45.247Z,4.44
2023-01-03T05:37:12.085Z,4.83
2023-01-03T05:39:38.572Z,4.78
2023-01-03T05:42:05.049Z,4.79
2023-01-03T05:44:32.709Z,4.69
2023-01-03T05:46:59.539Z,4.70
2023-01-03T05:49:26.083Z,4.86
2023-01-03T05:51:52.725Z,4.77
2023-01-03T05:54:20.351Z,4.70
2023-01-03T05:56:47.392Z,4.65
2023-01-03T05:59:14.019Z,4.66
2023-01-03T06:01:42.835Z,4.64
2023-01-03T06:04:09.527Z,4.50
2023-01-03T06:06:38.191Z,4.42
2023-01-03T06:09:04.766Z,4.35
2023-01-03T06:11:31.292Z,4.26
2023-01-03T06:13:57.775Z,4.19
2023-01-03T06:16:42.993Z,4.11
2023-01-03T06:19:09.465Z,4.06
2023-01-03T06:21:36.515Z,3.97
2023-01-03T06:24:03.083Z,4.05
2023-01-03T06:26:29.610Z,3.95
2023-01-03T06:28:56.549Z,3.92
2023-01-03T06:31:23.173Z,3.92
2023-01-03T06:33:49.911Z,3.83
2023-01-03T06:36:17.653Z,3.78
2023-01-03T06:38:44.605Z,3.88
2023-01-03T06:41:11.184Z,3.81
2023-01-03T06:43:37.638Z,3.71
2023-01-03T06:46:22.859Z,3.62
2023-01-03T06:49:08.039Z,3.61
2023-01-03T06:51:53.368Z,3.51
2023-01-03T06:54:27.951Z,3.45
2023-01-03T06:56:54.646Z,3.46
2023-01-03T06:59:21.689Z,3.44
2023-01-03T07:01:48.977Z,3.37
2023-01-03T07:04:16.028Z,3.31
2023-01-03T07:06:42.688Z,3.37
2023-01-03T07:09:09.571Z,3.38
2023-01-03T07:11:36.455Z,3.38
2023-01-03T07:14:03.537Z,3.49
2023-01-03T07:16:31.843Z,3.36
2023-01-03T07:18:58.712Z,3.36
2023-01-03T07:21:26.781Z,3.40
2023-01-03T07:23:54.067Z,3.31
2023-01-03T07:26:20.777Z,3.21
2023-01-03T07:28:47.398Z,3.17
2023-01-03T07:31:13.987Z,3.13
2023-01-03T07:33:40.592Z,3.10
2023-01-03T07:36:12.089Z,3.09
2023-01-03T07:38:39.583Z,3.07
2023-01-03T07:41:08.274Z,3.07
2023-01-03T07:43:37.919Z,3.02
2023-01-03T07:46:18.448Z,2.99
2023-01-03T07:48:46.167Z,3.00
2023-01-03T07:51:13.673Z,2.99
2023-01-03T07:53:40.797Z,3.07
2023-01-03T07:56:12.996Z,3.08
2023-01-03T07:58:41.038Z,3.11
2023-01-03T08:01:10.728Z,3.15
2023-01-03T08:03:37.959Z,3.28
2023-01-03T08:06:05.227Z,3.33
2023-01-03T08:08:32.156Z,3.41
2023-01-03T08:11:17.349Z,3.45
2023-01-03T08:13:44.329Z,3.50
2023-01-03T08:16:12.336Z,3.60
2023-01-03T08:18:39.783Z,3.66
2023-01-03T08:21:09.537Z,3.70
2023-01-03T08:23:38.782Z,3.85
2023-01-03T08:26:06.878Z,3.95
2023-01-03T08:28:37.527Z,4.04
2023-01-03T08:31:07.922Z,4.11
2023-01-03T08:33:39.592Z,4.18
2023-01-03T08:36:07.576Z,4.28
2023-01-03T08:38:47.318Z,4.29
2023-01-03T08:41:15.941Z,4.40
2023-01-03T08:43:43.571Z,4.58
2023-01-03T08:46:12.346Z,4.54
2023-01-03T08:48:40.404Z,4.68
2023-01-03T08:51:10.317Z,4.79
2023-01-03T08:53:36.991Z,4.95
2023-01-03T08:56:04.888Z,5.10
2023-01-03T08:58:34.555Z,5.03
2023-01-03T09:01:08.080Z,5.01
2023-01-03T09:03:34.719Z,5.12
2023-01-03T09:06:04.153Z,5.25
2023-01-03T09:08:31.608Z,5.25
2023-01-03T09:10:58.877Z,5.23
2023-01-03T09:13:25.570Z,5.37
2023-01-03T09:15:59.825Z,5.61
2023-01-03T09:18:26.571Z,5.93
2023-01-03T09:20:53.105Z,5.87
2023-01-03T09:23:22.351Z,6.40
2023-01-03T09:25:48.882Z,6.71
2023-01-03T09:28:18.224Z,6.93
2023-01-03T09:30:44.868Z,7.04
2023-01-03T09:33:11.614Z,7.32
2023-01-03T09:35:38.320Z,7.41
2023-01-03T09:38:07.521Z,7.35
2023-01-03T09:41:02.606Z,7.53
2023-01-03T09:43:41.665Z,7.98
2023-01-03T09:46:19.296Z,8.03
2023-01-03T09:48:46.663Z,8.27
2023-01-03T09:51:45.453Z,8.15
2023-01-03T09:54:33.581Z,8.34
2023-01-03T09:57:23.184Z,8.41
2023-01-03T10:00:11.374Z,8.45
2023-01-03T10:02:56.722Z,8.30
2023-01-03T10:05:23.435Z,8.44
2023-01-03T10:07:50.184Z,8.71
2023-01-03T10:10:16.724Z,8.60
2023-01-03T10:12:59.521Z,8.76
2023-01-03T10:15:54.587Z,8.76
2023-01-03T10:18:22.214Z,8.86
2023-01-03T10:20:54.544Z,8.34
2023-01-03T10:23:21.672Z,8.84
2023-01-03T10:25:48.469Z,8.88
2023-01-03T10:28:15.031Z,9.07
2023-01-03T10:31:07.725Z,9.04
2023-01-03T10:33:41.188Z,8.51
2023-01-03T10:36:10.905Z,8.05
2023-01-03T10:38:44.738Z,7.74
2023-01-03T10:41:34.255Z,7.45
2023-01-03T10:44:02.122Z,7.58
2023-01-03T10:46:30.019Z,7.51
2023-01-03T10:49:26.758Z,7.44
2023-01-03T10:51:53.611Z,7.11
2023-01-03T10:54:20.128Z,7.21
2023-01-03T10:56:47.799Z,7.31
2023-01-03T10:59:17.212Z,7.27
2023-01-03T11:01:57.110Z,7.16
2023-01-03T11:04:26.865Z,7.14
2023-01-03T11:07:08.547Z,7.21
2023-01-03T11:09:51.382Z,7.41
2023-01-03T11:12:37.388Z,7.54
2023-01-03T11:15:24.159Z,7.64
2023-01-03T11:18:02.917Z,8.17
2023-01-03T11:20:46.607Z,7.99
2023-01-03T11:23:33.518Z,8.13
2023-01-03T11:26:19.040Z,8.49
2023-01-03T11:29:04.665Z,8.36
2023-01-03T11:31:34.454Z,8.52
2023-01-03T11:34:04.203Z,8.20
2023-01-03T11:36:39.277Z,7.90
2023-01-03T11:39:24.705Z,7.77
2023-01-03T11:42:11.764Z,7.73
2023-01-03T11:44:50.455Z,7.69
2023-01-03T11:47:34.304Z,7.29
2023-01-03T11:50:15.303Z,7.32
2023-01-03T11:53:01.053Z,7.24
2023-01-03T11:55:46.490Z,7.15
2023-01-03T11:58:21.983Z,7.23
2023-01-03T12:01:03.870Z,7.01
2023-01-03T12:03:40.774Z,6.91
2023-01-03T12:06:10.629Z,6.94
2023-01-03T12:08:48.308Z,6.83
2023-01-03T12:11:34.276Z,6.76
2023-01-03T12:14:20.000Z,6.72
2023-01-03T12:16:53.991Z,6.88
2023-01-03T12:19:29.542Z,6.78
2023-01-03T12:21:58.992Z,6.72
2023-01-03T12:24:28.635Z,6.84
2023-01-03T12:26:56.959Z,7.45
2023-01-03T12:29:42.402Z,7.83
2023-01-03T12:32:12.827Z,7.82
2023-01-03T12:34:58.333Z,7.66
2023-01-03T12:37:28.792Z,7.61
2023-01-03T12:39:56.750Z,7.40
2023-01-03T12:42:33.469Z,7.14
2023-01-03T12:45:03.873Z,7.10
2023-01-03T12:47:36.624Z,7.11
2023-01-03T12:50:05.415Z,7.16
2023-01-03T12:52:33.389Z,7.25
2023-01-03T12:55:06.457Z,7.36
2023-01-03T12:57:39.121Z,7.63
2023-01-03T13:00:13.706Z,7.80
2023-01-03T13:02:49.609Z,7.95
2023-01-03T13:05:34.383Z,8.11
2023-01-03T13:08:16.246Z,7.88
2023-01-03T13:10:45.735Z,7.95
2023-01-03T13:13:17.541Z,7.70
2023-01-03T13:15:46.278Z,7.68
2023-01-03T13:18:16.704Z,7.62
2023-01-03T13:20:49.474Z,7.47
2023-01-03T13:23:48.931Z,7.42
2023-01-03T13:26:22.592Z,7.50
2023-01-03T13:28:49.328Z,7.39
2023-01-03T13:31:18.631Z,7.27
2023-01-03T13:33:48.368Z,7.25
2023-01-03T13:36:18.207Z,7.26
2023-01-03T13:38:44.710Z,7.03
2023-01-03T13:41:29.636Z,7.08
2023-01-03T13:44:07.056Z,7.12
2023-01-03T13:46:33.700Z,7.09
2023-01-03T13:49:01.787Z,7.03
2023-01-03T13:51:31.099Z,6.73
2023-01-03T13:54:02.661Z,6.58
2023-01-03T13:56:52.796Z,6.57
2023-01-03T13:59:26.645Z,6.60
2023-01-03T14:02:12.134Z,6.55
2023-01-03T14:04:47.746Z,6.50
2023-01-03T14:07:17.212Z,6.22
2023-01-03T14:09:59.139Z,6.22
2023-01-03T14:12:28.321Z,6.19
2023-01-03T14:14:56.049Z,6.27
2023-01-03T14:17:27.715Z,6.25
2023-01-03T14:19:56.715Z,6.02
2023-01-03T14:22:30.530Z,5.84
2023-01-03T14:24:59.000Z,5.92
2023-01-03T14:27:35.272Z,5.86
2023-01-03T14:30:01.801Z,5.77
2023-01-03T14:32:34.373Z,5.73
2023-01-03T14:35:01.562Z,5.55
2023-01-03T14:37:28.037Z,5.59
2023-01-03T14:40:01.821Z,5.45
2023-01-03T14:42:28.465Z,5.25
2023-01-03T14:44:55.908Z,5.19
2023-01-03T14:47:24.037Z,5.06
2023-01-03T14:49:52.863Z,4.90
2023-01-03T14:52:27.194Z,4.83
2023-01-03T14:54:59.976Z,4.69
2023-01-03T14:57:33.291Z,4.56
2023-01-03T15:00:01.034Z,4.45
2023-01-03T15:02:30.009Z,4.34
2023-01-03T15:05:21.089Z,4.19
2023-01-03T15:07:47.748Z,4.08
2023-01-03T15:10:20.588Z,3.99
2023-01-03T15:12:52.029Z,3.85
2023-01-03T15:15:50.430Z,3.76
2023-01-03T15:18:20.556Z,3.69
2023-01-03T15:20:52.280Z,3.60
2023-01-03T15:23:29.927Z,3.53
2023-01-03T15:26:01.540Z,3.43
2023-01-03T15:28:32.547Z,3.34
2023-01-03T15:31:12.598Z,3.26
2023-01-03T15:33:40.718Z,3.22
2023-01-03T15:36:19.204Z,3.12
2023-01-03T15:38:49.065Z,3.06
2023-01-03T15:42:12.441Z,3.00
2023-01-03T15:44:37.665Z,2.88
2023-01-03T15:47:07.561Z,2.87
2023-01-03T15:49:50.212Z,2.84
2023-01-03T15:52:17.035Z,2.74
2023-01-03T15:54:49.987Z,2.70
2023-01-03T15:57:20.625Z,2.69
2023-01-03T15:59:53.643Z,2.64
2023-01-03T16:02:21.150Z,2.58
2023-01-03T16:04:56.628Z,2.50
2023-01-03T16:07:23.416Z,2.41
2023-01-03T16:09:50.662Z,2.37
2023-01-03T16:12:46.813Z,2.37
2023-01-03T16:15:18.794Z,2.26
2023-01-03T16:17:47.962Z,2.16
2023-01-03T16:20:16.369Z,2.13
2023-01-03T16:23:00.892Z,2.06
2023-01-03T16:25:28.840Z,2.07
2023-01-03T16:27:55.499Z,2.10
2023-01-03T16:30:24.404Z,1.99
2023-01-03T16:32:51.114Z,1.88
2023-01-03T16:35:18.454Z,1.85
2023-01-03T16:37:45.161Z,1.84
2023-01-03T16:40:15.783Z,1.87
2023-01-03T16:42:44.724Z,1.88
2023-01-03T16:45:11.396Z,1.90
2023-01-03T16:47:38.092Z,1.84
2023-01-03T16:50:09.808Z,1.80
2023-01-03T16:52:41.049Z,1.77
2023-01-03T16:55:10.599Z,1.63
2023-01-03T16:57:39.311Z,1.57
2023-01-03T17:00:19.778Z,1.61
2023-01-03T17:02:48.845Z,1.57
2023-01-03T17:05:18.691Z,1.57
2023-01-03T17:07:48.550Z,1.53
2023-01-03T17:10:24.381Z,1.54
2023-01-03T17:12:50.994Z,1.50
2023-01-03T17:15:22.919Z,1.49
2023-01-03T17:17:52.985Z,1.49
2023-01-03T17:20:20.946Z,1.47
2023-01-03T17:22:58.559Z,1.51
2023-01-03T17:25:25.368Z,1.54
2023-01-03T17:27:53.435Z,1.51
2023-01-03T17:30:21.300Z,1.45
2023-01-03T17:32:47.987Z,1.44
2023-01-03T17:35:14.958Z,1.43
2023-01-03T17:38:23.494Z,1.51
2023-01-03T17:40:34.588Z,1.62
2023-01-03T17:43:02.044Z,1.68
2023-01-03T17:45:47.382Z,1.69
2023-01-03T17:48:32.608Z,1.71
2023-01-03T17:51:01.623Z,1.78
2023-01-03T17:53:28.879Z,1.81
2023-01-03T17:55:55.475Z,1.79
2023-01-03T17:58:28.962Z,1.80
2023-01-03T18:00:55.720Z,1.84
2023-01-03T18:03:22.363Z,1.83
2023-01-03T18:05:49.520Z,1.88
2023-01-03T18:08:18.196Z,1.99
2023-01-03T18:10:47.338Z,1.99
2023-01-03T18:13:25.338Z,1.99
2023-01-03T18:15:53.123Z,2.03
2023-01-03T18:18:20.704Z,2.07
2023-01-03T18:20:47.611Z,2.11
2023-01-03T18:23:40.682Z,2.08
2023-01-03T18:26:10.112Z,2.07
2023-01-03T18:28:36.678Z,2.04
2023-01-03T18:31:03.285Z,2.03
2023-01-03T18:33:29.972Z,1.99
2023-01-03T18:35:56.484Z,1.98
2023-01-03T18:38:34.367Z,1.95
2023-01-03T18:41:05.822Z,1.83
2023-01-03T18:43:33.383Z,1.75
2023-01-03T18:46:02.388Z,1.73
2023-01-03T18:48:29.020Z,1.77
2023-01-03T18:50:59.391Z,1.67
2023-01-03T18:53:28.420Z,1.52
2023-01-03T18:55:55.044Z,1.49
2023-01-03T18:58:24.585Z,1.50
2023-01-03T19:00:51.124Z,1.51
2023-01-03T19:03:27.518Z,1.52
2023-01-03T19:05:55.469Z,1.44
2023-01-03T19:08:23.688Z,1.42
2023-01-03T19:10:56.253Z,1.36
2023-01-03T19:13:25.787Z,1.26
2023-01-03T19:15:52.361Z,1.27
2023-01-03T19:18:18.922Z,1.29
2023-01-03T19:20:46.018Z,1.39
2023-01-03T19:23:23.971Z,1.48
2023-01-03T19:25:50.847Z,1.49
2023-01-03T19:28:22.065Z,1.54
2023-01-03T19:30:49.062Z,1.66
2023-01-03T19:33:16.012Z,1.73
2023-01-03T19:35:43.185Z,1.79
2023-01-03T19:38:09.706Z,1.83
2023-01-03T19:40:37.395Z,1.86
2023-01-03T19:43:04.228Z,1.88
2023-01-03T19:45:35.220Z,1.92
2023-01-03T19:48:21.904Z,2.00
2023-01-03T19:50:48.956Z,2.07
2023-01-03T19:53:15.880Z,2.14
2023-01-03T19:55:46.864Z,2.14
2023-01-03T19:58:23.157Z,2.13
2023-01-03T20:00:51.128Z,2.12
2023-01-03T20:03:31.812Z,2.16
2023-01-03T20:05:59.099Z,2.21
2023-01-03T20:08:25.683Z,2.26
2023-01-03T20:10:53.374Z,2.31
2023-01-03T20:13:21.693Z,2.39
2023-01-03T20:15:49.184Z,2.44
2023-01-03T20:18:26.671Z,2.45
2023-01-03T20:21:01.291Z,2.52
2023-01-03T20:23:34.637Z,2.53
2023-01-03T20:26:01.178Z,2.54
2023-01-03T20:28:31.196Z,2.55
2023-01-03T20:30:58.756Z,2.55
2023-01-03T20:33:25.598Z,2.53
2023-01-03T20:36:23.431Z,2.52
2023-01-03T20:38:41.413Z,2.42
2023-01-03T20:41:12.324Z,2.40
2023-01-03T20:43:39.104Z,2.42
2023-01-03T20:46:05.954Z,2.43
2023-01-03T20:48:32.795Z,2.47
2023-01-03T20:50:59.395Z,2.49
2023-01-03T20:53:28.070Z,2.51
2023-01-03T20:55:54.696Z,2.55
2023-01-03T20:58:28.037Z,2.56
2023-01-03T21:01:02.057Z,2.61
2023-01-03T21:03:35.278Z,2.64
2023-01-03T21:06:24.633Z,2.67
2023-01-03T21:08:54.335Z,2.71
2023-01-03T21:11:28.310Z,2.75
2023-01-03T21:13:55.297Z,2.77
2023-01-03T21:16:28.023Z,2.78
2023-01-03T21:18:54.764Z,2.81
2023-01-03T21:21:22.779Z,2.85
2023-01-03T21:23:49.348Z,2.88
2023-01-03T21:26:15.859Z,2.89
2023-01-03T21:28:42.358Z,2.91
2023-01-03T21:31:12.959Z,2.95
2023-01-03T21:33:39.443Z,2.94
2023-01-03T21:36:06.111Z,2.99
2023-01-03T21:38:32.568Z,2.97
2023-01-03T21:40:59.027Z,2.99
2023-01-03T21:43:25.479Z,3.02
2023-01-03T21:45:54.937Z,3.03
2023-01-03T21:48:21.431Z,3.02
2023-01-03T21:50:49.880Z,3.02
2023-01-03T21:53:21.178Z,3.05
2023-01-03T21:55:48.431Z,3.05
2023-01-03T21:58:16.012Z,3.06
2023-01-03T22:00:42.927Z,3.02
2023-01-03T22:03:31.559Z,3.04
2023-01-03T22:06:08.197Z,3.06
2023-01-03T22:08:34.687Z,3.11
2023-01-03T22:11:02.421Z,3.11
2023-01-03T22:13:28.910Z,3.12
2023-01-03T22:15:55.742Z,3.12
2023-01-03T22:18:22.207Z,3.13
2023-01-03T22:20:48.775Z,3.10
2023-01-03T22:23:16.909Z,3.07
2023-01-03T22:25:43.332Z,3.08
2023-01-03T22:28:12.621Z,3.03
2023-01-03T22:30:42.403Z,3.00
2023-01-03T22:33:11.743Z,2.89
2023-01-03T22:35:38.198Z,2.78
2023-01-03T22:38:04.667Z,2.71
2023-01-03T22:40:31.218Z,2.65
2023-01-03T22:42:57.688Z,2.61
2023-01-03T22:45:24.252Z,2.55
2023-01-03T22:47:50.727Z,2.50
2023-01-03T22:50:17.514Z,2.46
2023-01-03T22:52:44.018Z,2.44
2023-01-03T22:55:10.593Z,2.43
2023-01-03T22:57:37.105Z,2.33
2023-01-03T23:00:05.107Z,2.27
2023-01-03T23:02:39.157Z,2.25
2023-01-03T23:05:08.059Z,2.18
2023-01-03T23:07:34.544Z,2.16
2023-01-03T23:10:01.102Z,2.15
2023-01-03T23:12:46.212Z,2.11
2023-01-03T23:15:12.713Z,2.06
2023-01-03T23:17:57.182Z,1.97
2023-01-03T23:20:28.547Z,1.85
2023-01-03T23:22:59.633Z,1.81
2023-01-03T23:25:26.738Z,1.81
2023-01-03T23:27:53.188Z,1.82
2023-01-03T23:30:19.923Z,1.83
2023-01-03T23:32:46.526Z,1.82
2023-01-03T23:35:13.055Z,1.86
2023-01-03T23:37:39.704Z,1.92
2023-01-03T23:40:06.649Z,2.09
2023-01-03T23:42:33.131Z,2.12
2023-01-03T23:44:59.602Z,2.22
2023-01-03T23:47:26.058Z,2.26
2023-01-03T23:49:52.585Z,2.34
2023-01-03T23:52:19.075Z,2.35
2023-01-03T23:54:45.565Z,2.44
2023-01-03T23:57:13.030Z,2.44
2023-01-03T23:59:39.536Z,2.52
